sensor_id;sensor_type;location;lat;lon;timestamp;P1;durP1;ratioP1;P2;durP2;ratioP2
86304;SDS011;76964;49.316;7.118;2024-03-02T00:00:49;1.00;;;1.00;;
86304;SDS011;76964;49.316;7.118;2024-03-02T00:03:17;0.90;;;0.90;;
86304;SDS011;76964;49.316;7.118;2024-03-02T00:05:49;0.90;;;0.90;;
86304;SDS011;76964;49.316;7.118;2024-03-02T00:08:24;0.90;;;0.90;;
86304;SDS011;76964;49.316;7.118;2024-03-02T00:10:56;1.03;;;1.03;;
86304;SDS011;76964;49.316;7.118;2024-03-02T00:13:27;1.00;;;1.00;;
86304;SDS011;76964;49.316;7.118;2024-03-02T00:15:56;1.00;;;1.00;;
86304;SDS011;76964;49.316;7.118;2024-03-02T00:18:25;1.03;;;1.03;;
86304;SDS011;76964;49.316;7.118;2024-03-02T00:20:54;0.93;;;0.93;;
86304;SDS011;76964;49.316;7.118;2024-03-02T00:23:23;0.80;;;0.80;;
86304;SDS011;76964;49.316;7.118;2024-03-02T00:25:54;1.00;;;1.00;;
86304;SDS011;76964;49.316;7.118;2024-03-02T00:28:23;0.93;;;0.93;;
86304;SDS011;76964;49.316;7.118;2024-03-02T00:31:01;1.00;;;1.00;;
86304;SDS011;76964;49.316;7.118;2024-03-02T00:33:34;0.90;;;0.90;;
86304;SDS011;76964;49.316;7.118;2024-03-02T00:36:04;1.00;;;1.00;;
86304;SDS011;76964;49.316;7.118;2024-03-02T00:38:33;0.87;;;0.87;;
86304;SDS011;76964;49.316;7.118;2024-03-02T00:41:04;0.90;;;0.90;;
86304;SDS011;76964;49.316;7.118;2024-03-02T00:43:44;0.87;;;0.87;;
86304;SDS011;76964;49.316;7.118;2024-03-02T00:46:17;0.90;;;0.90;;
86304;SDS011;76964;49.316;7.118;2024-03-02T00:48:53;0.90;;;0.90;;
86304;SDS011;76964;49.316;7.118;2024-03-02T00:51:23;0.90;;;0.90;;
86304;SDS011;76964;49.316;7.118;2024-03-02T00:53:52;0.90;;;0.90;;
86304;SDS011;76964;49.316;7.118;2024-03-02T00:56:23;0.80;;;0.80;;
86304;SDS011;76964;49.316;7.118;2024-03-02T00:58:51;0.90;;;0.90;;
86304;SDS011;76964;49.316;7.118;2024-03-02T01:01:21;0.97;;;0.93;;
86304;SDS011;76964;49.316;7.118;2024-03-02T01:03:50;0.90;;;0.90;;
86304;SDS011;76964;49.316;7.118;2024-03-02T01:06:18;0.90;;;0.90;;
86304;SDS011;76964;49.316;7.118;2024-03-02T01:08:46;0.73;;;0.73;;
86304;SDS011;76964;49.316;7.118;2024-03-02T01:11:18;0.80;;;0.80;;
86304;SDS011;76964;49.316;7.118;2024-03-02T01:13:48;0.80;;;0.80;;
86304;SDS011;76964;49.316;7.118;2024-03-02T01:16:16;1.00;;;1.00;;
86304;SDS011;76964;49.316;7.118;2024-03-02T01:18:46;0.80;;;0.80;;
86304;SDS011;76964;49.316;7.118;2024-03-02T01:21:15;0.77;;;0.77;;
86304;SDS011;76964;49.316;7.118;2024-03-02T01:23:43;0.80;;;0.80;;
86304;SDS011;76964;49.316;7.118;2024-03-02T01:26:11;0.87;;;0.87;;
86304;SDS011;76964;49.316;7.118;2024-03-02T01:28:39;0.90;;;0.90;;
86304;SDS011;76964;49.316;7.118;2024-03-02T01:31:07;0.93;;;0.93;;
86304;SDS011;76964;49.316;7.118;2024-03-02T01:33:35;0.77;;;0.77;;
86304;SDS011;76964;49.316;7.118;2024-03-02T01:36:05;0.80;;;0.80;;
86304;SDS011;76964;49.316;7.118;2024-03-02T01:38:34;0.90;;;0.90;;
86304;SDS011;76964;49.316;7.118;2024-03-02T01:41:03;0.80;;;0.80;;
86304;SDS011;76964;49.316;7.118;2024-03-02T01:43:31;0.73;;;0.73;;
86304;SDS011;76964;49.316;7.118;2024-03-02T01:45:59;0.80;;;0.80;;
86304;SDS011;76964;49.316;7.118;2024-03-02T01:48:27;0.70;;;0.70;;
86304;SDS011;76964;49.316;7.118;2024-03-02T01:50:55;0.87;;;0.87;;
86304;SDS011;76964;49.316;7.118;2024-03-02T01:53:25;0.83;;;0.83;;
86304;SDS011;76964;49.316;7.118;2024-03-02T01:55:53;1.00;;;1.00;;
86304;SDS011;76964;49.316;7.118;2024-03-02T01:58:21;1.00;;;1.00;;
86304;SDS011;76964;49.316;7.118;2024-03-02T02:00:49;1.00;;;1.00;;
86304;SDS011;76964;49.316;7.118;2024-03-02T02:03:17;0.90;;;0.90;;
86304;SDS011;76964;49.316;7.118;2024-03-02T02:05:46;0.70;;;0.70;;
86304;SDS011;76964;49.316;7.118;2024-03-02T02:08:14;0.80;;;0.80;;
86304;SDS011;76964;49.316;7.118;2024-03-02T02:10:43;0.80;;;0.80;;
86304;SDS011;76964;49.316;7.118;2024-03-02T02:13:11;0.70;;;0.70;;
86304;SDS011;76964;49.316;7.118;2024-03-02T02:15:40;0.80;;;0.80;;
86304;SDS011;76964;49.316;7.118;2024-03-02T02:18:08;1.00;;;1.00;;
86304;SDS011;76964;49.316;7.118;2024-03-02T02:20:36;0.80;;;0.80;;
86304;SDS011;76964;49.316;7.118;2024-03-02T02:23:05;0.83;;;0.83;;
86304;SDS011;76964;49.316;7.118;2024-03-02T02:25:36;0.90;;;0.90;;
86304;SDS011;76964;49.316;7.118;2024-03-02T02:28:04;0.60;;;0.60;;
86304;SDS011;76964;49.316;7.118;2024-03-02T02:30:32;0.90;;;0.90;;
86304;SDS011;76964;49.316;7.118;2024-03-02T02:33:01;0.73;;;0.73;;
86304;SDS011;76964;49.316;7.118;2024-03-02T02:35:29;0.90;;;0.90;;
86304;SDS011;76964;49.316;7.118;2024-03-02T02:37:58;0.80;;;0.80;;
86304;SDS011;76964;49.316;7.118;2024-03-02T02:40:27;0.90;;;0.90;;
86304;SDS011;76964;49.316;7.118;2024-03-02T02:42:57;0.90;;;0.90;;
86304;SDS011;76964;49.316;7.118;2024-03-02T02:45:26;0.80;;;0.80;;
86304;SDS011;76964;49.316;7.118;2024-03-02T02:47:54;0.80;;;0.80;;
86304;SDS011;76964;49.316;7.118;2024-03-02T02:50:22;0.90;;;0.90;;
86304;SDS011;76964;49.316;7.118;2024-03-02T02:52:50;0.90;;;0.90;;
86304;SDS011;76964;49.316;7.118;2024-03-02T02:55:18;0.90;;;0.90;;
86304;SDS011;76964;49.316;7.118;2024-03-02T02:57:48;0.70;;;0.70;;
86304;SDS011;76964;49.316;7.118;2024-03-02T03:00:16;0.80;;;0.80;;
86304;SDS011;76964;49.316;7.118;2024-03-02T03:02:47;0.90;;;0.90;;
86304;SDS011;76964;49.316;7.118;2024-03-02T03:05:17;0.70;;;0.70;;
86304;SDS011;76964;49.316;7.118;2024-03-02T03:07:46;0.80;;;0.80;;
86304;SDS011;76964;49.316;7.118;2024-03-02T03:10:16;0.80;;;0.80;;
86304;SDS011;76964;49.316;7.118;2024-03-02T03:12:44;0.90;;;0.90;;
86304;SDS011;76964;49.316;7.118;2024-03-02T03:15:14;1.00;;;1.00;;
86304;SDS011;76964;49.316;7.118;2024-03-02T03:17:43;0.90;;;0.90;;
86304;SDS011;76964;49.316;7.118;2024-03-02T03:20:14;0.90;;;0.90;;
86304;SDS011;76964;49.316;7.118;2024-03-02T03:22:42;0.70;;;0.70;;
86304;SDS011;76964;49.316;7.118;2024-03-02T03:25:10;0.80;;;0.80;;
86304;SDS011;76964;49.316;7.118;2024-03-02T03:27:38;0.77;;;0.77;;
86304;SDS011;76964;49.316;7.118;2024-03-02T03:30:08;0.70;;;0.70;;
86304;SDS011;76964;49.316;7.118;2024-03-02T03:32:38;0.70;;;0.70;;
86304;SDS011;76964;49.316;7.118;2024-03-02T03:35:07;0.90;;;0.90;;
86304;SDS011;76964;49.316;7.118;2024-03-02T03:37:35;0.80;;;0.80;;
86304;SDS011;76964;49.316;7.118;2024-03-02T03:40:03;0.80;;;0.80;;
86304;SDS011;76964;49.316;7.118;2024-03-02T03:42:37;0.63;;;0.63;;
86304;SDS011;76964;49.316;7.118;2024-03-02T03:45:05;0.90;;;0.90;;
86304;SDS011;76964;49.316;7.118;2024-03-02T03:47:34;0.90;;;0.90;;
86304;SDS011;76964;49.316;7.118;2024-03-02T03:50:04;0.93;;;0.93;;
86304;SDS011;76964;49.316;7.118;2024-03-02T03:52:34;0.60;;;0.60;;
86304;SDS011;76964;49.316;7.118;2024-03-02T03:55:02;0.90;;;0.90;;
86304;SDS011;76964;49.316;7.118;2024-03-02T03:57:32;0.80;;;0.80;;
86304;SDS011;76964;49.316;7.118;2024-03-02T04:00:02;0.70;;;0.70;;
86304;SDS011;76964;49.316;7.118;2024-03-02T04:02:38;0.80;;;0.80;;
86304;SDS011;76964;49.316;7.118;2024-03-02T04:05:07;0.70;;;0.70;;
86304;SDS011;76964;49.316;7.118;2024-03-02T04:07:37;0.70;;;0.70;;
86304;SDS011;76964;49.316;7.118;2024-03-02T04:10:07;0.80;;;0.80;;
86304;SDS011;76964;49.316;7.118;2024-03-02T04:12:36;0.80;;;0.80;;
86304;SDS011;76964;49.316;7.118;2024-03-02T04:15:05;0.70;;;0.70;;
86304;SDS011;76964;49.316;7.118;2024-03-02T04:17:33;0.70;;;0.70;;
86304;SDS011;76964;49.316;7.118;2024-03-02T04:20:03;0.80;;;0.80;;
86304;SDS011;76964;49.316;7.118;2024-03-02T04:22:34;0.80;;;0.80;;
86304;SDS011;76964;49.316;7.118;2024-03-02T04:25:03;0.93;;;0.70;;
86304;SDS011;76964;49.316;7.118;2024-03-02T04:27:33;0.90;;;0.90;;
86304;SDS011;76964;49.316;7.118;2024-03-02T04:30:02;1.00;;;1.00;;
86304;SDS011;76964;49.316;7.118;2024-03-02T04:32:32;1.40;;;1.30;;
86304;SDS011;76964;49.316;7.118;2024-03-02T04:35:00;3.00;;;1.80;;
86304;SDS011;76964;49.316;7.118;2024-03-02T04:37:28;1.77;;;1.63;;
86304;SDS011;76964;49.316;7.118;2024-03-02T04:39:58;1.83;;;1.70;;
86304;SDS011;76964;49.316;7.118;2024-03-02T04:42:26;2.60;;;1.67;;
86304;SDS011;76964;49.316;7.118;2024-03-02T04:44:55;3.13;;;1.77;;
86304;SDS011;76964;49.316;7.118;2024-03-02T04:47:23;2.43;;;2.03;;
86304;SDS011;76964;49.316;7.118;2024-03-02T04:49:51;2.40;;;2.20;;
86304;SDS011;76964;49.316;7.118;2024-03-02T04:52:19;4.00;;;2.13;;
86304;SDS011;76964;49.316;7.118;2024-03-02T04:54:47;2.43;;;2.23;;
86304;SDS011;76964;49.316;7.118;2024-03-02T04:57:48;2.70;;;2.20;;
86304;SDS011;76964;49.316;7.118;2024-03-02T05:00:17;2.47;;;2.27;;
86304;SDS011;76964;49.316;7.118;2024-03-02T05:02:47;4.67;;;2.53;;
86304;SDS011;76964;49.316;7.118;2024-03-02T05:05:15;2.80;;;2.60;;
86304;SDS011;76964;49.316;7.118;2024-03-02T05:07:45;4.20;;;2.43;;
86304;SDS011;76964;49.316;7.118;2024-03-02T05:10:13;3.27;;;2.53;;
86304;SDS011;76964;49.316;7.118;2024-03-02T05:12:41;3.33;;;2.60;;
86304;SDS011;76964;49.316;7.118;2024-03-02T05:15:25;2.73;;;2.43;;
86304;SDS011;76964;49.316;7.118;2024-03-02T05:17:54;4.13;;;2.80;;
86304;SDS011;76964;49.316;7.118;2024-03-02T05:20:23;4.00;;;2.87;;
86304;SDS011;76964;49.316;7.118;2024-03-02T05:22:51;3.73;;;3.07;;
86304;SDS011;76964;49.316;7.118;2024-03-02T05:25:19;3.33;;;2.90;;
86304;SDS011;76964;49.316;7.118;2024-03-02T05:27:47;4.73;;;3.33;;
86304;SDS011;76964;49.316;7.118;2024-03-02T05:30:15;2.87;;;2.60;;
86304;SDS011;76964;49.316;7.118;2024-03-02T05:32:45;3.67;;;2.80;;
86304;SDS011;76964;49.316;7.118;2024-03-02T05:35:13;4.17;;;3.00;;
86304;SDS011;76964;49.316;7.118;2024-03-02T05:37:41;5.13;;;3.00;;
86304;SDS011;76964;49.316;7.118;2024-03-02T05:40:09;3.17;;;2.87;;
86304;SDS011;76964;49.316;7.118;2024-03-02T05:42:39;2.83;;;2.63;;
86304;SDS011;76964;49.316;7.118;2024-03-02T05:45:08;3.10;;;2.80;;
86304;SDS011;76964;49.316;7.118;2024-03-02T05:47:36;3.53;;;2.80;;
86304;SDS011;76964;49.316;7.118;2024-03-02T05:50:06;3.20;;;2.90;;
86304;SDS011;76964;49.316;7.118;2024-03-02T05:52:35;4.27;;;2.80;;
86304;SDS011;76964;49.316;7.118;2024-03-02T05:55:03;3.27;;;2.93;;
86304;SDS011;76964;49.316;7.118;2024-03-02T05:57:32;2.77;;;2.57;;
86304;SDS011;76964;49.316;7.118;2024-03-02T06:00:14;3.67;;;2.97;;
86304;SDS011;76964;49.316;7.118;2024-03-02T06:02:43;3.93;;;2.70;;
86304;SDS011;76964;49.316;7.118;2024-03-02T06:05:13;4.93;;;3.40;;
86304;SDS011;76964;49.316;7.118;2024-03-02T06:07:42;3.27;;;2.97;;
86304;SDS011;76964;49.316;7.118;2024-03-02T06:10:12;3.47;;;2.97;;
86304;SDS011;76964;49.316;7.118;2024-03-02T06:12:40;2.70;;;2.50;;
86304;SDS011;76964;49.316;7.118;2024-03-02T06:15:09;2.67;;;2.47;;
86304;SDS011;76964;49.316;7.118;2024-03-02T06:17:37;2.67;;;2.47;;
86304;SDS011;76964;49.316;7.118;2024-03-02T06:20:06;4.23;;;2.87;;
86304;SDS011;76964;49.316;7.118;2024-03-02T06:22:37;3.27;;;2.73;;
86304;SDS011;76964;49.316;7.118;2024-03-02T06:25:05;3.43;;;2.80;;
86304;SDS011;76964;49.316;7.118;2024-03-02T06:27:33;3.20;;;2.90;;
86304;SDS011;76964;49.316;7.118;2024-03-02T06:30:02;3.40;;;2.90;;
86304;SDS011;76964;49.316;7.118;2024-03-02T06:32:31;3.30;;;3.00;;
86304;SDS011;76964;49.316;7.118;2024-03-02T06:34:59;2.90;;;2.70;;
86304;SDS011;76964;49.316;7.118;2024-03-02T06:37:27;3.63;;;3.07;;
86304;SDS011;76964;49.316;7.118;2024-03-02T06:39:57;3.50;;;2.90;;
86304;SDS011;76964;49.316;7.118;2024-03-02T06:42:25;3.50;;;2.83;;
86304;SDS011;76964;49.316;7.118;2024-03-02T06:44:53;3.20;;;2.47;;
86304;SDS011;76964;49.316;7.118;2024-03-02T06:47:22;2.77;;;2.50;;
86304;SDS011;76964;49.316;7.118;2024-03-02T06:49:50;2.83;;;2.63;;
86304;SDS011;76964;49.316;7.118;2024-03-02T06:52:19;4.27;;;2.57;;
86304;SDS011;76964;49.316;7.118;2024-03-02T06:54:50;2.70;;;2.50;;
86304;SDS011;76964;49.316;7.118;2024-03-02T06:57:20;3.50;;;2.80;;
86304;SDS011;76964;49.316;7.118;2024-03-02T06:59:48;2.80;;;2.60;;
86304;SDS011;76964;49.316;7.118;2024-03-02T07:02:17;2.83;;;2.63;;
86304;SDS011;76964;49.316;7.118;2024-03-02T07:04:45;3.47;;;2.70;;
86304;SDS011;76964;49.316;7.118;2024-03-02T07:07:13;2.70;;;2.50;;
86304;SDS011;76964;49.316;7.118;2024-03-02T07:09:41;2.37;;;2.23;;
86304;SDS011;76964;49.316;7.118;2024-03-02T07:12:09;2.97;;;2.67;;
86304;SDS011;76964;49.316;7.118;2024-03-02T07:14:39;2.20;;;2.10;;
86304;SDS011;76964;49.316;7.118;2024-03-02T07:17:37;2.60;;;2.30;;
86304;SDS011;76964;49.316;7.118;2024-03-02T07:20:06;2.50;;;2.30;;
86304;SDS011;76964;49.316;7.118;2024-03-02T07:22:34;2.57;;;2.37;;
86304;SDS011;76964;49.316;7.118;2024-03-02T07:25:06;2.70;;;2.50;;
86304;SDS011;76964;49.316;7.118;2024-03-02T07:27:55;2.77;;;2.57;;
86304;SDS011;76964;49.316;7.118;2024-03-02T07:30:25;2.57;;;2.37;;
86304;SDS011;76964;49.316;7.118;2024-03-02T07:32:53;2.87;;;2.67;;
86304;SDS011;76964;49.316;7.118;2024-03-02T07:35:21;2.43;;;2.23;;
86304;SDS011;76964;49.316;7.118;2024-03-02T07:37:53;2.67;;;2.47;;
86304;SDS011;76964;49.316;7.118;2024-03-02T07:40:21;2.83;;;2.57;;
86304;SDS011;76964;49.316;7.118;2024-03-02T07:42:50;3.17;;;2.57;;
86304;SDS011;76964;49.316;7.118;2024-03-02T07:45:18;2.50;;;2.30;;
86304;SDS011;76964;49.316;7.118;2024-03-02T07:47:47;2.77;;;2.53;;
86304;SDS011;76964;49.316;7.118;2024-03-02T07:50:16;2.57;;;2.37;;
86304;SDS011;76964;49.316;7.118;2024-03-02T07:52:44;2.63;;;2.43;;
86304;SDS011;76964;49.316;7.118;2024-03-02T07:55:12;3.13;;;2.77;;
86304;SDS011;76964;49.316;7.118;2024-03-02T07:57:40;2.47;;;2.30;;
86304;SDS011;76964;49.316;7.118;2024-03-02T08:00:09;2.60;;;2.40;;
86304;SDS011;76964;49.316;7.118;2024-03-02T08:02:38;2.40;;;2.30;;
86304;SDS011;76964;49.316;7.118;2024-03-02T08:05:09;2.83;;;2.13;;
86304;SDS011;76964;49.316;7.118;2024-03-02T08:07:38;2.10;;;2.00;;
86304;SDS011;76964;49.316;7.118;2024-03-02T08:10:06;2.20;;;2.10;;
86304;SDS011;76964;49.316;7.118;2024-03-02T08:12:35;2.10;;;2.00;;
86304;SDS011;76964;49.316;7.118;2024-03-02T08:15:03;2.47;;;2.27;;
86304;SDS011;76964;49.316;7.118;2024-03-02T08:17:32;2.00;;;1.90;;
86304;SDS011;76964;49.316;7.118;2024-03-02T08:20:03;2.20;;;2.10;;
86304;SDS011;76964;49.316;7.118;2024-03-02T08:22:34;2.30;;;2.10;;
86304;SDS011;76964;49.316;7.118;2024-03-02T08:25:03;2.40;;;2.30;;
86304;SDS011;76964;49.316;7.118;2024-03-02T08:27:31;2.20;;;2.10;;
86304;SDS011;76964;49.316;7.118;2024-03-02T08:30:00;2.20;;;2.10;;
86304;SDS011;76964;49.316;7.118;2024-03-02T08:32:30;2.10;;;2.00;;
86304;SDS011;76964;49.316;7.118;2024-03-02T08:34:58;2.10;;;2.00;;
86304;SDS011;76964;49.316;7.118;2024-03-02T08:37:26;2.60;;;2.40;;
86304;SDS011;76964;49.316;7.118;2024-03-02T08:39:55;2.60;;;2.20;;
86304;SDS011;76964;49.316;7.118;2024-03-02T08:42:23;1.90;;;1.80;;
86304;SDS011;76964;49.316;7.118;2024-03-02T08:44:52;2.30;;;2.20;;
86304;SDS011;76964;49.316;7.118;2024-03-02T08:47:20;2.70;;;2.50;;
86304;SDS011;76964;49.316;7.118;2024-03-02T08:49:48;2.60;;;2.50;;
86304;SDS011;76964;49.316;7.118;2024-03-02T08:52:16;2.80;;;2.60;;
86304;SDS011;76964;49.316;7.118;2024-03-02T08:54:44;2.47;;;2.37;;
86304;SDS011;76964;49.316;7.118;2024-03-02T08:57:13;2.00;;;1.93;;
86304;SDS011;76964;49.316;7.118;2024-03-02T08:59:41;2.20;;;2.10;;
86304;SDS011;76964;49.316;7.118;2024-03-02T09:02:10;2.20;;;2.10;;
86304;SDS011;76964;49.316;7.118;2024-03-02T09:04:38;2.20;;;2.10;;
86304;SDS011;76964;49.316;7.118;2024-03-02T09:07:06;2.23;;;2.13;;
86304;SDS011;76964;49.316;7.118;2024-03-02T09:09:34;2.40;;;2.30;;
86304;SDS011;76964;49.316;7.118;2024-03-02T09:12:02;2.20;;;2.10;;
86304;SDS011;76964;49.316;7.118;2024-03-02T09:14:32;2.40;;;2.30;;
86304;SDS011;76964;49.316;7.118;2024-03-02T09:17:01;2.53;;;2.40;;
86304;SDS011;76964;49.316;7.118;2024-03-02T09:19:29;2.20;;;2.10;;
86304;SDS011;76964;49.316;7.118;2024-03-02T09:21:58;2.10;;;2.00;;
86304;SDS011;76964;49.316;7.118;2024-03-02T09:24:26;2.50;;;2.30;;
86304;SDS011;76964;49.316;7.118;2024-03-02T09:26:54;2.43;;;2.30;;
86304;SDS011;76964;49.316;7.118;2024-03-02T09:29:22;2.50;;;2.30;;
86304;SDS011;76964;49.316;7.118;2024-03-02T09:31:51;2.30;;;2.20;;
86304;SDS011;76964;49.316;7.118;2024-03-02T09:34:19;2.33;;;2.23;;
86304;SDS011;76964;49.316;7.118;2024-03-02T09:36:49;2.17;;;2.07;;
86304;SDS011;76964;49.316;7.118;2024-03-02T09:39:18;2.30;;;2.20;;
86304;SDS011;76964;49.316;7.118;2024-03-02T09:41:47;1.97;;;1.90;;
86304;SDS011;76964;49.316;7.118;2024-03-02T09:44:15;2.13;;;2.03;;
86304;SDS011;76964;49.316;7.118;2024-03-02T09:46:43;2.33;;;2.23;;
86304;SDS011;76964;49.316;7.118;2024-03-02T09:49:17;1.97;;;1.87;;
86304;SDS011;76964;49.316;7.118;2024-03-02T09:51:46;2.10;;;2.00;;
86304;SDS011;76964;49.316;7.118;2024-03-02T09:54:15;2.33;;;2.20;;
86304;SDS011;76964;49.316;7.118;2024-03-02T09:56:49;2.17;;;2.07;;
86304;SDS011;76964;49.316;7.118;2024-03-02T09:59:17;2.30;;;2.20;;
86304;SDS011;76964;49.316;7.118;2024-03-02T10:01:56;2.00;;;2.00;;
86304;SDS011;76964;49.316;7.118;2024-03-02T10:04:27;2.07;;;1.97;;
86304;SDS011;76964;49.316;7.118;2024-03-02T10:07:09;2.40;;;2.20;;
86304;SDS011;76964;49.316;7.118;2024-03-02T10:09:41;2.10;;;2.00;;
86304;SDS011;76964;49.316;7.118;2024-03-02T10:12:12;2.23;;;2.07;;
86304;SDS011;76964;49.316;7.118;2024-03-02T10:14:41;2.07;;;1.97;;
86304;SDS011;76964;49.316;7.118;2024-03-02T10:17:10;2.00;;;1.90;;
86304;SDS011;76964;49.316;7.118;2024-03-02T10:19:40;2.13;;;2.03;;
86304;SDS011;76964;49.316;7.118;2024-03-02T10:22:09;2.17;;;2.07;;
86304;SDS011;76964;49.316;7.118;2024-03-02T10:24:38;2.13;;;2.03;;
86304;SDS011;76964;49.316;7.118;2024-03-02T10:27:08;2.00;;;1.90;;
86304;SDS011;76964;49.316;7.118;2024-03-02T10:29:37;1.83;;;1.83;;
86304;SDS011;76964;49.316;7.118;2024-03-02T10:32:10;2.10;;;2.00;;
86304;SDS011;76964;49.316;7.118;2024-03-02T10:34:40;2.03;;;2.00;;
86304;SDS011;76964;49.316;7.118;2024-03-02T10:37:10;2.13;;;2.03;;
86304;SDS011;76964;49.316;7.118;2024-03-02T10:39:39;2.20;;;2.10;;
86304;SDS011;76964;49.316;7.118;2024-03-02T10:42:08;2.17;;;2.07;;
86304;SDS011;76964;49.316;7.118;2024-03-02T10:44:36;1.80;;;1.80;;
86304;SDS011;76964;49.316;7.118;2024-03-02T10:47:05;1.90;;;1.90;;
86304;SDS011;76964;49.316;7.118;2024-03-02T10:49:33;1.83;;;1.73;;
86304;SDS011;76964;49.316;7.118;2024-03-02T10:52:02;2.20;;;2.10;;
86304;SDS011;76964;49.316;7.118;2024-03-02T10:54:31;1.90;;;1.90;;
86304;SDS011;76964;49.316;7.118;2024-03-02T10:57:04;2.03;;;1.93;;
86304;SDS011;76964;49.316;7.118;2024-03-02T10:59:36;1.97;;;1.87;;
86304;SDS011;76964;49.316;7.118;2024-03-02T11:02:08;2.03;;;1.93;;
86304;SDS011;76964;49.316;7.118;2024-03-02T11:04:39;2.00;;;1.90;;
86304;SDS011;76964;49.316;7.118;2024-03-02T11:07:10;1.93;;;1.87;;
86304;SDS011;76964;49.316;7.118;2024-03-02T11:09:41;1.70;;;1.70;;
86304;SDS011;76964;49.316;7.118;2024-03-02T11:12:12;1.60;;;1.60;;
86304;SDS011;76964;49.316;7.118;2024-03-02T11:14:48;1.70;;;1.70;;
86304;SDS011;76964;49.316;7.118;2024-03-02T11:17:19;1.77;;;1.77;;
86304;SDS011;76964;49.316;7.118;2024-03-02T11:19:47;1.70;;;1.70;;
86304;SDS011;76964;49.316;7.118;2024-03-02T11:22:18;1.90;;;1.83;;
86304;SDS011;76964;49.316;7.118;2024-03-02T11:24:50;1.80;;;1.70;;
86304;SDS011;76964;49.316;7.118;2024-03-02T11:33:22;1.50;;;1.50;;
86304;SDS011;76964;49.316;7.118;2024-03-02T11:35:54;2.00;;;1.90;;
86304;SDS011;76964;49.316;7.118;2024-03-02T11:38:28;1.60;;;1.60;;
86304;SDS011;76964;49.316;7.118;2024-03-02T11:40:59;1.90;;;1.80;;
86304;SDS011;76964;49.316;7.118;2024-03-02T11:43:28;1.60;;;1.60;;
86304;SDS011;76964;49.316;7.118;2024-03-02T11:45:58;1.63;;;1.63;;
86304;SDS011;76964;49.316;7.118;2024-03-02T11:48:27;1.73;;;1.63;;
86304;SDS011;76964;49.316;7.118;2024-03-02T11:50:57;1.50;;;1.50;;
86304;SDS011;76964;49.316;7.118;2024-03-02T11:53:29;1.50;;;1.50;;
86304;SDS011;76964;49.316;7.118;2024-03-02T11:56:01;1.30;;;1.30;;
86304;SDS011;76964;49.316;7.118;2024-03-02T11:58:31;1.40;;;1.40;;
86304;SDS011;76964;49.316;7.118;2024-03-02T12:01:03;1.70;;;1.70;;
86304;SDS011;76964;49.316;7.118;2024-03-02T12:03:31;1.50;;;1.50;;
86304;SDS011;76964;49.316;7.118;2024-03-02T12:06:02;1.73;;;1.73;;
86304;SDS011;76964;49.316;7.118;2024-03-02T12:08:32;1.57;;;1.57;;
86304;SDS011;76964;49.316;7.118;2024-03-02T12:11:00;1.43;;;1.40;;
86304;SDS011;76964;49.316;7.118;2024-03-02T12:13:30;1.47;;;1.47;;
86304;SDS011;76964;49.316;7.118;2024-03-02T12:15:59;1.50;;;1.50;;
86304;SDS011;76964;49.316;7.118;2024-03-02T12:18:28;1.70;;;1.70;;
86304;SDS011;76964;49.316;7.118;2024-03-02T12:20:56;1.50;;;1.50;;
86304;SDS011;76964;49.316;7.118;2024-03-02T12:23:25;1.73;;;1.67;;
86304;SDS011;76964;49.316;7.118;2024-03-02T12:25:54;1.43;;;1.40;;
86304;SDS011;76964;49.316;7.118;2024-03-02T12:28:23;1.70;;;1.70;;
86304;SDS011;76964;49.316;7.118;2024-03-02T12:30:51;1.37;;;1.37;;
86304;SDS011;76964;49.316;7.118;2024-03-02T12:33:19;1.73;;;1.73;;
86304;SDS011;76964;49.316;7.118;2024-03-02T12:35:48;1.70;;;1.70;;
86304;SDS011;76964;49.316;7.118;2024-03-02T12:38:17;1.50;;;1.50;;
86304;SDS011;76964;49.316;7.118;2024-03-02T12:40:47;1.70;;;1.70;;
86304;SDS011;76964;49.316;7.118;2024-03-02T12:43:17;1.77;;;1.77;;
86304;SDS011;76964;49.316;7.118;2024-03-02T12:45:45;1.47;;;1.47;;
86304;SDS011;76964;49.316;7.118;2024-03-02T12:48:14;1.37;;;1.37;;
86304;SDS011;76964;49.316;7.118;2024-03-02T12:50:42;1.40;;;1.40;;
86304;SDS011;76964;49.316;7.118;2024-03-02T12:53:14;1.40;;;1.40;;
86304;SDS011;76964;49.316;7.118;2024-03-02T12:55:43;1.50;;;1.50;;
86304;SDS011;76964;49.316;7.118;2024-03-02T12:58:18;1.57;;;1.57;;
86304;SDS011;76964;49.316;7.118;2024-03-02T13:00:47;1.70;;;1.37;;
86304;SDS011;76964;49.316;7.118;2024-03-02T13:03:17;1.43;;;1.43;;
86304;SDS011;76964;49.316;7.118;2024-03-02T13:05:50;1.47;;;1.47;;
86304;SDS011;76964;49.316;7.118;2024-03-02T13:08:19;1.63;;;1.50;;
86304;SDS011;76964;49.316;7.118;2024-03-02T13:10:47;1.40;;;1.40;;
86304;SDS011;76964;49.316;7.118;2024-03-02T13:13:16;1.47;;;1.47;;
86304;SDS011;76964;49.316;7.118;2024-03-02T13:15:45;1.30;;;1.30;;
86304;SDS011;76964;49.316;7.118;2024-03-02T13:18:13;1.37;;;1.37;;
86304;SDS011;76964;49.316;7.118;2024-03-02T13:20:43;1.40;;;1.40;;
86304;SDS011;76964;49.316;7.118;2024-03-02T13:23:11;1.47;;;1.47;;
86304;SDS011;76964;49.316;7.118;2024-03-02T13:25:40;1.27;;;1.27;;
86304;SDS011;76964;49.316;7.118;2024-03-02T13:28:09;1.23;;;1.23;;
86304;SDS011;76964;49.316;7.118;2024-03-02T13:30:39;1.10;;;1.10;;
86304;SDS011;76964;49.316;7.118;2024-03-02T13:33:07;1.33;;;1.33;;
86304;SDS011;76964;49.316;7.118;2024-03-02T13:35:35;1.50;;;1.50;;
86304;SDS011;76964;49.316;7.118;2024-03-02T13:38:03;1.13;;;1.13;;
86304;SDS011;76964;49.316;7.118;2024-03-02T13:40:31;1.43;;;1.43;;
86304;SDS011;76964;49.316;7.118;2024-03-02T13:43:02;1.27;;;1.27;;
86304;SDS011;76964;49.316;7.118;2024-03-02T13:45:30;1.30;;;1.30;;
86304;SDS011;76964;49.316;7.118;2024-03-02T13:48:00;1.27;;;1.27;;
86304;SDS011;76964;49.316;7.118;2024-03-02T13:50:29;1.33;;;1.33;;
86304;SDS011;76964;49.316;7.118;2024-03-02T13:52:58;1.10;;;1.10;;
86304;SDS011;76964;49.316;7.118;2024-03-02T13:55:26;1.50;;;1.50;;
86304;SDS011;76964;49.316;7.118;2024-03-02T13:57:54;1.20;;;1.20;;
86304;SDS011;76964;49.316;7.118;2024-03-02T14:00:22;1.50;;;1.50;;
86304;SDS011;76964;49.316;7.118;2024-03-02T14:02:50;1.20;;;1.20;;
86304;SDS011;76964;49.316;7.118;2024-03-02T14:05:20;1.30;;;1.30;;
86304;SDS011;76964;49.316;7.118;2024-03-02T14:07:48;1.30;;;1.30;;
86304;SDS011;76964;49.316;7.118;2024-03-02T14:10:16;1.63;;;1.63;;
86304;SDS011;76964;49.316;7.118;2024-03-02T14:12:48;1.10;;;1.10;;
86304;SDS011;76964;49.316;7.118;2024-03-02T14:15:16;1.30;;;1.30;;
86304;SDS011;76964;49.316;7.118;2024-03-02T14:17:47;1.23;;;1.23;;
86304;SDS011;76964;49.316;7.118;2024-03-02T14:20:15;1.10;;;1.10;;
86304;SDS011;76964;49.316;7.118;2024-03-02T14:22:49;1.30;;;1.30;;
86304;SDS011;76964;49.316;7.118;2024-03-02T14:25:17;1.00;;;1.00;;
86304;SDS011;76964;49.316;7.118;2024-03-02T14:27:46;1.00;;;1.00;;
86304;SDS011;76964;49.316;7.118;2024-03-02T14:30:34;1.10;;;1.10;;
86304;SDS011;76964;49.316;7.118;2024-03-02T14:33:03;1.40;;;1.40;;
86304;SDS011;76964;49.316;7.118;2024-03-02T14:35:35;1.17;;;1.17;;
86304;SDS011;76964;49.316;7.118;2024-03-02T14:38:04;1.10;;;1.10;;
86304;SDS011;76964;49.316;7.118;2024-03-02T14:40:32;1.20;;;1.20;;
86304;SDS011;76964;49.316;7.118;2024-03-02T14:43:00;0.97;;;0.97;;
86304;SDS011;76964;49.316;7.118;2024-03-02T14:45:29;1.30;;;1.30;;
86304;SDS011;76964;49.316;7.118;2024-03-02T14:47:57;1.17;;;1.17;;
86304;SDS011;76964;49.316;7.118;2024-03-02T14:50:26;0.93;;;0.93;;
86304;SDS011;76964;49.316;7.118;2024-03-02T14:52:54;1.00;;;1.00;;
86304;SDS011;76964;49.316;7.118;2024-03-02T14:55:25;1.20;;;1.20;;
86304;SDS011;76964;49.316;7.118;2024-03-02T14:57:53;1.20;;;1.20;;
86304;SDS011;76964;49.316;7.118;2024-03-02T15:00:21;1.20;;;1.20;;
86304;SDS011;76964;49.316;7.118;2024-03-02T15:02:49;1.23;;;1.23;;
86304;SDS011;76964;49.316;7.118;2024-03-02T15:05:19;1.00;;;1.00;;
86304;SDS011;76964;49.316;7.118;2024-03-02T15:07:48;1.20;;;1.20;;